Terminal Aerodrome Forecast
Issued by NWS Twin Cities, MN

Home | Current Version | Previous Version | Graphics & Text | Print | Product List | Glossary On
Versions: 1 2 3 4 5 6 7 8 9 10 11 12 13 14 15 16 17 18 19 20 21 22 23 24 25 26 27 28
000
FTUS43 KMPX 211400 AAA
TAFMSP
TAF AMD
KMSP 211448Z 2115/2218 15009KT P6SM BKN040
     FM211800 16012G20KT P6SM SCT050 SCT250
     FM220000 15011KT P6SM SCT050 BKN200
     FM220600 15008KT 6SM HZ SCT040 BKN150 PROB30 2206/2210 4SM TSRA
      BKN040CB
     FM221400 32013KT P6SM SCT030=

USA.gov is the U.S. government's official web portal to all federal, state and local government web resources and services.